createdAt,value
2023-10-05T00:02:26.323Z,11.74
2023-10-05T00:05:29.297Z,11.72
2023-10-05T00:08:36.904Z,11.71
2023-10-05T00:11:40.563Z,11.76
2023-10-05T00:14:43.338Z,11.57
2023-10-05T00:17:47.845Z,11.58
2023-10-05T00:20:50.806Z,11.51
2023-10-05T00:23:58.422Z,11.42
2023-10-05T00:27:01.029Z,11.40
2023-10-05T00:30:06.293Z,11.31
2023-10-05T00:33:12.795Z,11.19
2023-10-05T00:36:15.742Z,11.33
2023-10-05T00:39:21.140Z,11.39
2023-10-05T00:42:24.574Z,11.35
2023-10-05T00:45:32.465Z,11.27
2023-10-05T00:48:42.805Z,11.15
2023-10-05T00:51:56.213Z,11.10
2023-10-05T00:55:07.401Z,10.94
2023-10-05T00:58:16.203Z,11.02
2023-10-05T01:01:24.826Z,11.04
2023-10-05T01:04:36.050Z,11.05
2023-10-05T01:07:51.014Z,10.96
2023-10-05T01:10:55.621Z,10.98
2023-10-05T01:14:01.662Z,10.94
2023-10-05T01:17:05.249Z,11.09
2023-10-05T01:20:17.998Z,11.18
2023-10-05T01:23:30.092Z,11.21
2023-10-05T01:26:38.485Z,11.28
2023-10-05T01:29:41.397Z,11.15
2023-10-05T01:32:46.086Z,11.13
2023-10-05T01:35:49.535Z,11.05
2023-10-05T01:38:55.822Z,11.04
2023-10-05T01:42:00.954Z,10.74
2023-10-05T01:45:07.221Z,10.57
2023-10-05T01:48:15.609Z,10.52
2023-10-05T01:51:25.112Z,10.67
2023-10-05T01:54:30.838Z,10.53
2023-10-05T01:57:33.840Z,10.59
2023-10-05T02:00:40.417Z,10.55
2023-10-05T02:03:43.501Z,10.47
2023-10-05T02:06:50.810Z,10.46
2023-10-05T02:09:54.535Z,10.52
2023-10-05T02:12:57.206Z,10.51
2023-10-05T02:16:01.266Z,10.54
2023-10-05T02:19:08.748Z,10.54
2023-10-05T02:22:15.181Z,10.55
2023-10-05T02:25:23.392Z,10.59
2023-10-05T02:28:28.909Z,10.70
2023-10-05T02:31:31.628Z,10.54
2023-10-05T02:34:38.769Z,10.56
2023-10-05T02:37:41.430Z,10.61
2023-10-05T02:40:47.961Z,10.72
2023-10-05T02:43:53.696Z,10.52
2023-10-05T02:46:57.482Z,10.50
2023-10-05T02:50:06.835Z,10.57
2023-10-05T02:53:09.764Z,10.80
2023-10-05T02:56:28.132Z,10.78
2023-10-05T02:59:31.068Z,11.08
2023-10-05T03:02:38.476Z,11.25
2023-10-05T03:05:43.190Z,11.90
2023-10-05T03:08:54.945Z,11.46
2023-10-05T03:11:57.993Z,10.81
2023-10-05T03:15:05.988Z,10.65
2023-10-05T03:18:09.158Z,10.73
2023-10-05T03:21:15.624Z,10.69
2023-10-05T03:24:20.362Z,10.54
2023-10-05T03:27:23.922Z,10.44
2023-10-05T03:30:31.743Z,10.41
2023-10-05T03:33:37.358Z,10.41
2023-10-05T03:36:40.331Z,10.31
2023-10-05T03:39:53.372Z,10.16
2023-10-05T03:42:59.801Z,10.05
2023-10-05T03:46:08.141Z,10.14
2023-10-05T03:49:11.082Z,10.21
2023-10-05T03:52:14.532Z,10.24
2023-10-05T03:55:20.565Z,10.19
2023-10-05T03:58:23.728Z,10.18
2023-10-05T04:01:27.299Z,10.32
2023-10-05T04:04:36.199Z,10.33
2023-10-05T04:07:41.067Z,10.31
2023-10-05T04:10:48.891Z,10.22
2023-10-05T04:13:52.261Z,10.14
2023-10-05T04:16:55.386Z,10.10
2023-10-05T04:19:58.727Z,9.92
2023-10-05T04:23:04.898Z,9.89
2023-10-05T04:26:10.052Z,10.02
2023-10-05T04:29:13.703Z,9.92
2023-10-05T04:32:16.821Z,10.02
2023-10-05T04:35:24.517Z,9.95
2023-10-05T04:38:27.398Z,9.96
2023-10-05T04:41:32.471Z,10.68
2023-10-05T04:44:35.522Z,10.24
2023-10-05T04:47:39.128Z,9.96
2023-10-05T04:50:45.018Z,10.13
2023-10-05T04:53:49.488Z,10.26
2023-10-05T04:56:55.446Z,10.18
2023-10-05T05:00:21.469Z,10.26
2023-10-05T05:03:27.397Z,10.33
2023-10-05T05:06:33.417Z,10.27
2023-10-05T05:09:43.517Z,10.33
2023-10-05T05:12:47.389Z,10.42
2023-10-05T05:15:56.310Z,10.27
2023-10-05T05:18:59.774Z,10.43
2023-10-05T05:22:04.118Z,10.34
2023-10-05T05:25:10.412Z,10.60
2023-10-05T05:28:12.973Z,10.38
2023-10-05T05:31:17.600Z,10.40
2023-10-05T05:34:20.805Z,10.65
2023-10-05T05:37:30.728Z,10.94
2023-10-05T05:40:37.994Z,11.10
2023-10-05T05:43:41.112Z,11.18
2023-10-05T05:46:44.853Z,11.83
2023-10-05T05:49:48.129Z,11.69
2023-10-05T05:52:54.965Z,12.00
2023-10-05T05:56:02.402Z,12.69
2023-10-05T05:59:05.342Z,13.08
2023-10-05T06:02:09.717Z,13.10
2023-10-05T06:05:12.701Z,13.76
2023-10-05T06:08:17.969Z,14.39
2023-10-05T06:11:20.738Z,15.23
2023-10-05T06:14:23.344Z,15.62
2023-10-05T06:17:26.283Z,15.66
2023-10-05T06:20:29.180Z,15.25
2023-10-05T06:23:35.422Z,16.29
2023-10-05T06:26:39.481Z,16.38
2023-10-05T06:29:42.940Z,16.71
2023-10-05T06:32:45.610Z,16.79
2023-10-05T06:35:48.496Z,17.17
2023-10-05T06:38:51.072Z,17.36
2023-10-05T06:41:54.636Z,17.62
2023-10-05T06:44:59.477Z,18.26
2023-10-05T06:48:05.072Z,18.50
2023-10-05T06:51:08.466Z,18.04
2023-10-05T06:54:11.606Z,18.94
2023-10-05T06:57:14.718Z,18.93
2023-10-05T07:00:22.658Z,19.18
2023-10-05T07:03:25.433Z,19.41
2023-10-05T07:06:33.763Z,19.06
2023-10-05T07:09:36.244Z,19.73
2023-10-05T07:12:48.931Z,19.82
2023-10-05T07:15:51.672Z,19.94
2023-10-05T07:18:55.856Z,20.77
2023-10-05T07:21:58.506Z,19.94
2023-10-05T07:25:01.635Z,20.59
2023-10-05T07:28:15.149Z,20.64
2023-10-05T07:31:18.482Z,21.10
2023-10-05T07:34:21.357Z,21.55
2023-10-05T07:37:25.083Z,21.45
2023-10-05T07:40:29.089Z,22.06
2023-10-05T07:43:33.493Z,21.87
2023-10-05T07:46:39.902Z,21.77
2023-10-05T07:49:43.013Z,22.70
2023-10-05T07:52:46.274Z,22.04
2023-10-05T07:55:49.404Z,22.95
2023-10-05T07:58:52.025Z,22.02
2023-10-05T08:01:56.379Z,22.47
2023-10-05T08:04:59.532Z,22.49
2023-10-05T08:08:06.260Z,23.11
2023-10-05T08:11:09.376Z,23.33
2023-10-05T08:14:15.028Z,24.60
2023-10-05T08:17:18.802Z,23.74
2023-10-05T08:20:25.823Z,23.91
2023-10-05T08:23:31.613Z,23.89
2023-10-05T08:26:34.301Z,24.65
2023-10-05T08:29:40.808Z,24.53
2023-10-05T08:32:43.469Z,24.54
2023-10-05T08:35:46.255Z,24.51
2023-10-05T08:38:55.217Z,24.58
2023-10-05T08:42:08.248Z,24.47
2023-10-05T08:45:13.482Z,25.01
2023-10-05T08:48:21.038Z,24.22
2023-10-05T08:51:26.054Z,24.84
2023-10-05T08:54:29.770Z,24.23
2023-10-05T08:57:32.202Z,22.89
2023-10-05T09:00:41.361Z,23.66
2023-10-05T09:03:43.941Z,25.06
2023-10-05T09:06:53.997Z,25.02
2023-10-05T09:09:56.617Z,25.27
2023-10-05T09:13:00.011Z,26.25
2023-10-05T09:16:07.862Z,25.60
2023-10-05T09:19:30.674Z,25.29
2023-10-05T09:22:48.956Z,25.80
2023-10-05T09:25:51.897Z,26.78
2023-10-05T09:29:13.886Z,25.99
2023-10-05T09:32:23.731Z,26.65
2023-10-05T09:35:29.317Z,26.23
2023-10-05T09:38:41.696Z,26.96
2023-10-05T09:41:51.200Z,26.96
2023-10-05T09:44:55.365Z,26.81
2023-10-05T09:48:03.640Z,24.99
2023-10-05T09:51:12.172Z,24.74
2023-10-05T09:54:16.600Z,26.66
2023-10-05T09:57:21.932Z,26.81
2023-10-05T10:00:39.213Z,27.42
2023-10-05T10:03:49.812Z,26.31
2023-10-05T10:06:54.574Z,26.88
2023-10-05T10:09:58.078Z,27.44
2023-10-05T10:13:01.718Z,26.28
2023-10-05T10:16:24.504Z,26.65
2023-10-05T10:19:28.706Z,26.82
2023-10-05T10:22:48.291Z,24.86
2023-10-05T10:25:51.758Z,27.43
2023-10-05T10:29:11.261Z,26.84
2023-10-05T10:32:24.160Z,27.59
2023-10-05T10:35:30.262Z,25.45
2023-10-05T10:38:33.148Z,23.98
2023-10-05T10:42:02.370Z,23.07
2023-10-05T10:45:13.814Z,25.07
2023-10-05T10:48:23.580Z,25.69
2023-10-05T10:51:34.051Z,25.74
2023-10-05T10:54:46.821Z,25.75
2023-10-05T10:57:54.360Z,24.60
2023-10-05T11:01:01.204Z,24.23
2023-10-05T11:04:05.934Z,23.90
2023-10-05T11:07:09.264Z,24.77
2023-10-05T11:10:21.955Z,22.99
2023-10-05T11:13:25.774Z,25.20
2023-10-05T11:16:45.352Z,26.02
2023-10-05T11:19:50.286Z,25.93
2023-10-05T11:23:04.609Z,26.47
2023-10-05T11:26:30.201Z,25.66
2023-10-05T11:29:45.825Z,23.76
2023-10-05T11:34:06.119Z,24.14
2023-10-05T11:36:34.795Z,25.36
2023-10-05T11:39:41.249Z,26.16
2023-10-05T11:42:44.052Z,26.22
2023-10-05T11:46:24.727Z,27.03
2023-10-05T11:49:32.261Z,26.47
2023-10-05T11:52:39.800Z,27.19
2023-10-05T11:55:42.653Z,24.93
2023-10-05T11:58:49.132Z,25.23
2023-10-05T12:01:53.258Z,25.82
2023-10-05T12:04:56.635Z,25.61
2023-10-05T12:08:01.232Z,25.92
2023-10-05T12:11:04.314Z,24.37
2023-10-05T12:14:07.091Z,24.91
2023-10-05T12:17:11.380Z,23.83
2023-10-05T12:20:15.065Z,22.47
2023-10-05T12:23:18.768Z,22.28
2023-10-05T12:26:22.402Z,23.10
2023-10-05T12:29:25.305Z,22.94
2023-10-05T12:32:28.730Z,23.24
2023-10-05T12:35:31.694Z,23.05
2023-10-05T12:38:34.194Z,23.22
2023-10-05T12:41:43.015Z,23.30
2023-10-05T12:44:46.821Z,23.37
2023-10-05T12:47:59.951Z,23.39
2023-10-05T12:51:02.780Z,23.38
2023-10-05T12:54:09.985Z,23.24
2023-10-05T12:57:21.540Z,23.35
2023-10-05T13:00:42.903Z,23.36
2023-10-05T13:03:45.790Z,23.06
2023-10-05T13:06:48.674Z,22.20
2023-10-05T13:10:01.341Z,22.27
2023-10-05T13:13:11.697Z,22.03
2023-10-05T13:16:22.318Z,22.21
2023-10-05T13:19:25.885Z,22.19
2023-10-05T13:22:30.304Z,22.27
2023-10-05T13:25:34.893Z,22.59
2023-10-05T13:28:37.614Z,22.91
2023-10-05T13:31:40.740Z,22.65
2023-10-05T13:34:47.355Z,22.21
2023-10-05T13:37:50.451Z,22.54
2023-10-05T13:41:13.170Z,22.31
2023-10-05T13:44:15.986Z,22.28
2023-10-05T13:47:19.354Z,22.95
2023-10-05T13:50:24.341Z,23.02
2023-10-05T13:53:27.046Z,23.08
2023-10-05T13:56:32.135Z,22.61
2023-10-05T13:59:34.863Z,22.66
2023-10-05T14:02:38.593Z,23.00
2023-10-05T14:05:41.722Z,23.14
2023-10-05T14:08:47.574Z,23.25
2023-10-05T14:11:50.763Z,22.64
2023-10-05T14:14:54.018Z,22.44
2023-10-05T14:17:58.064Z,22.29
2023-10-05T14:21:04.105Z,22.16
2023-10-05T14:24:07.420Z,22.44
2023-10-05T14:27:09.918Z,22.23
2023-10-05T14:30:18.062Z,22.04
2023-10-05T14:33:24.289Z,22.00
2023-10-05T14:36:31.597Z,21.69
2023-10-05T14:39:35.572Z,21.78
2023-10-05T14:42:40.073Z,21.70
2023-10-05T14:45:49.434Z,21.54
2023-10-05T14:48:52.342Z,21.49
2023-10-05T14:51:54.862Z,21.40
2023-10-05T14:54:58.622Z,21.46
2023-10-05T14:58:08.888Z,21.42
2023-10-05T15:01:15.001Z,21.43
2023-10-05T15:04:21.205Z,21.31
2023-10-05T15:07:24.366Z,21.54
2023-10-05T15:10:28.929Z,21.63
2023-10-05T15:13:32.246Z,21.57
2023-10-05T15:16:35.566Z,21.69
2023-10-05T15:19:40.710Z,21.72
2023-10-05T15:22:44.397Z,21.46
2023-10-05T15:25:49.866Z,21.53
2023-10-05T15:28:52.866Z,21.48
2023-10-05T15:31:56.049Z,21.32
2023-10-05T15:34:58.537Z,21.33
2023-10-05T15:38:01.649Z,21.51
2023-10-05T15:41:05.241Z,21.41
2023-10-05T15:44:09.230Z,21.15
2023-10-05T15:47:12.346Z,21.34
2023-10-05T15:50:17.004Z,20.93
2023-10-05T15:53:19.696Z,20.68
2023-10-05T15:56:22.680Z,20.76
2023-10-05T15:59:25.238Z,20.73
2023-10-05T16:02:28.464Z,20.69
2023-10-05T16:05:35.437Z,20.68
2023-10-05T16:08:38.225Z,20.51
2023-10-05T16:11:42.293Z,20.33
2023-10-05T16:14:45.113Z,20.44
2023-10-05T16:17:49.292Z,20.31
2023-10-05T16:20:52.084Z,20.22
2023-10-05T16:23:55.054Z,20.24
2023-10-05T16:26:57.681Z,19.85
2023-10-05T16:30:00.465Z,19.87
2023-10-05T16:33:03.306Z,19.87
2023-10-05T16:36:07.010Z,19.87
2023-10-05T16:39:12.832Z,19.66
2023-10-05T16:42:17.847Z,19.59
2023-10-05T16:45:22.613Z,19.48
2023-10-05T16:48:25.673Z,19.34
2023-10-05T16:51:32.479Z,19.20
2023-10-05T16:54:40.316Z,19.06
2023-10-05T16:57:46.575Z,19.00
2023-10-05T17:00:52.945Z,18.98
2023-10-05T17:03:56.605Z,18.91
2023-10-05T17:06:59.662Z,18.83
2023-10-05T17:10:02.249Z,18.53
2023-10-05T17:13:05.294Z,18.46
2023-10-05T17:16:09.833Z,18.46
2023-10-05T17:19:16.002Z,18.41
2023-10-05T17:22:18.691Z,18.38
2023-10-05T17:25:23.018Z,18.58
2023-10-05T17:28:28.710Z,18.69
2023-10-05T17:31:33.309Z,18.57
2023-10-05T17:34:35.833Z,18.51
2023-10-05T17:37:38.714Z,18.41
2023-10-05T17:40:41.495Z,18.31
2023-10-05T17:43:44.466Z,18.38
2023-10-05T17:46:48.156Z,18.42
2023-10-05T17:49:52.745Z,18.22
2023-10-05T17:53:00.585Z,18.22
2023-10-05T17:56:03.672Z,18.28
2023-10-05T17:59:06.404Z,18.23
2023-10-05T18:02:10.553Z,17.97
2023-10-05T18:05:16.654Z,18.05
2023-10-05T18:08:23.364Z,18.35
2023-10-05T18:11:26.334Z,18.39
2023-10-05T18:14:30.328Z,18.31
2023-10-05T18:17:36.808Z,18.18
2023-10-05T18:20:45.733Z,18.09
2023-10-05T18:23:52.142Z,18.14
2023-10-05T18:26:54.669Z,18.06
2023-10-05T18:29:59.220Z,18.03
2023-10-05T18:33:02.769Z,18.04
2023-10-05T18:36:07.637Z,18.03
2023-10-05T18:39:15.034Z,18.00
2023-10-05T18:42:19.994Z,18.10
2023-10-05T18:45:22.528Z,18.10
2023-10-05T18:48:27.641Z,18.12
2023-10-05T18:51:30.722Z,18.18
2023-10-05T18:54:33.895Z,18.20
2023-10-05T18:57:37.313Z,18.15
2023-10-05T19:00:40.869Z,18.11
2023-10-05T19:03:46.963Z,18.04
2023-10-05T19:06:50.379Z,17.95
2023-10-05T19:09:53.996Z,17.92
2023-10-05T19:12:59.078Z,17.84
2023-10-05T19:16:01.945Z,17.84
2023-10-05T19:19:05.559Z,17.81
2023-10-05T19:22:09.363Z,17.71
2023-10-05T19:25:13.871Z,17.47
2023-10-05T19:28:16.617Z,17.53
2023-10-05T19:31:20.627Z,17.70
2023-10-05T19:34:23.822Z,17.34
2023-10-05T19:37:29.751Z,17.33
2023-10-05T19:40:34.625Z,17.32
2023-10-05T19:43:37.570Z,17.28
2023-10-05T19:46:41.211Z,17.20
2023-10-05T19:49:44.236Z,17.01
2023-10-05T19:52:47.318Z,17.03
2023-10-05T19:55:57.624Z,16.88
2023-10-05T19:59:04.725Z,16.82
2023-10-05T20:02:07.670Z,16.71
2023-10-05T20:05:10.805Z,16.63
2023-10-05T20:08:14.871Z,16.61
2023-10-05T20:11:17.637Z,16.56
2023-10-05T20:14:22.452Z,16.82
2023-10-05T20:17:25.378Z,16.76
2023-10-05T20:20:30.427Z,16.80
2023-10-05T20:23:33.264Z,16.74
2023-10-05T20:26:36.867Z,16.98
2023-10-05T20:29:39.705Z,16.69
2023-10-05T20:32:42.221Z,16.48
2023-10-05T20:35:44.984Z,16.46
2023-10-05T20:38:47.560Z,16.45
2023-10-05T20:41:55.511Z,16.41
2023-10-05T20:44:58.380Z,16.43
2023-10-05T20:48:04.414Z,16.42
2023-10-05T20:51:07.066Z,16.28
2023-10-05T20:54:10.586Z,16.36
2023-10-05T20:57:13.178Z,16.25
2023-10-05T21:00:16.411Z,16.14
2023-10-05T21:03:20.844Z,16.11
2023-10-05T21:06:23.728Z,16.22
2023-10-05T21:09:26.345Z,16.32
2023-10-05T21:12:29.176Z,16.27
2023-10-05T21:15:31.684Z,16.33
2023-10-05T21:18:34.621Z,16.13
2023-10-05T21:21:37.698Z,16.06
2023-10-05T21:24:40.966Z,16.04
2023-10-05T21:27:43.620Z,16.21
2023-10-05T21:30:46.823Z,16.08
2023-10-05T21:33:49.591Z,16.07
2023-10-05T21:36:52.364Z,16.02
2023-10-05T21:39:54.854Z,16.03
2023-10-05T21:42:58.528Z,15.98
2023-10-05T21:46:01.223Z,15.66
2023-10-05T21:49:04.941Z,15.51
2023-10-05T21:52:08.302Z,15.49
2023-10-05T21:55:12.005Z,15.35
2023-10-05T21:58:14.634Z,15.47
2023-10-05T22:01:24.821Z,15.56
2023-10-05T22:04:27.780Z,15.67
2023-10-05T22:07:30.544Z,15.47
2023-10-05T22:10:37.520Z,15.51
2023-10-05T22:13:40.667Z,15.45
2023-10-05T22:16:43.627Z,15.25
2023-10-05T22:19:46.517Z,15.25
2023-10-05T22:22:49.405Z,15.18
2023-10-05T22:25:52.556Z,14.85
2023-10-05T22:28:55.460Z,14.66
2023-10-05T22:31:58.139Z,14.69
2023-10-05T22:35:01.073Z,14.77
2023-10-05T22:38:04.393Z,14.93
2023-10-05T22:41:10.239Z,14.95
2023-10-05T22:44:12.990Z,15.09
2023-10-05T22:47:15.856Z,15.11
2023-10-05T22:50:18.452Z,15.11
2023-10-05T22:53:21.243Z,15.05
2023-10-05T22:56:23.771Z,14.95
2023-10-05T22:59:26.803Z,14.91
2023-10-05T23:02:29.562Z,14.83
2023-10-05T23:05:33.574Z,14.87
2023-10-05T23:08:36.916Z,14.75
2023-10-05T23:11:40.656Z,14.75
2023-10-05T23:14:51.068Z,14.62
2023-10-05T23:17:54.023Z,14.56
2023-10-05T23:20:57.643Z,14.50
2023-10-05T23:24:00.627Z,14.51
2023-10-05T23:27:05.472Z,14.53
2023-10-05T23:30:09.118Z,14.57
2023-10-05T23:33:11.694Z,14.33
2023-10-05T23:36:19.161Z,14.37
2023-10-05T23:39:24.913Z,14.36
2023-10-05T23:42:31.952Z,14.26
2023-10-05T23:45:36.064Z,13.98
2023-10-05T23:48:40.282Z,13.65
2023-10-05T23:51:46.061Z,13.61
2023-10-05T23:54:48.992Z,13.65
2023-10-05T23:57:52.991Z,13.64
